Time,TemperatureF,DewpointF,PressureIn,WindDirection,WindDirectionDegrees,WindSpeedMPH,WindSpeedGustMPH,Humidity,HourlyPrecipIn,Conditions,Clouds,dailyrainin,SoftwareType,DateUTC
2014-03-18 00:00:00,41.0,41.0,30.21,SSE,157,0.0,2.0,100,0.00,,,0.01,VWS V13.01,2014-03-18 07:00:00,
2014-03-18 00:05:00,42.0,42.0,30.21,South,180,0.0,2.0,100,0.00,,,0.01,VWS V13.01,2014-03-18 07:05:00,
2014-03-18 00:10:00,42.0,42.0,30.22,South,180,0.0,2.0,100,0.00,,,0.01,VWS V13.01,2014-03-18 07:10:00,
2014-03-18 00:12:00,42.0,42.0,30.20,South,180,11.0,13.0,100,0.00,,,0.00,VWS V13.01,2014-03-18 07:12:00,
2014-03-18 00:15:00,42.0,42.0,30.21,WSW,247,0.0,0.0,100,0.00,,,0.01,VWS V13.01,2014-03-18 07:15:00,
2014-03-18 00:20:00,42.0,42.0,30.21,SW,225,0.0,0.0,100,0.00,,,0.01,VWS V13.01,2014-03-18 07:20:00,
2014-03-18 00:25:00,42.0,42.0,30.21,South,180,0.0,0.0,100,0.00,,,0.01,VWS V13.01,2014-03-18 07:25:00,
2014-03-18 00:30:00,42.0,42.0,30.21,SSE,157,0.0,0.0,100,0.00,,,0.01,VWS V13.01,2014-03-18 07:30:00,
2014-03-18 00:34:00,46.0,44.9,30.24,SSW,202,2.0,29.0,96,0.59,,,0.05,VWS V13.01,2014-03-18 07:34:00,
2014-03-18 00:35:00,42.0,42.0,30.20,SSE,157,6.0,7.0,100,0.00,,,0.01,VWS V13.01,2014-03-18 07:35:00,
2014-03-18 00:36:00,46.0,44.9,30.25,SSW,202,3.0,29.0,96,0.59,,,0.05,VWS V13.01,2014-03-18 07:36:00,
2014-03-18 00:40:00,42.0,42.0,30.21,SSE,157,1.0,7.0,100,0.00,,,0.01,VWS V13.01,2014-03-18 07:40:00,
2014-03-18 00:45:00,42.0,42.0,30.21,South,180,2.0,3.0,100,0.00,,,0.01,VWS V13.01,2014-03-18 07:45:00,
2014-03-18 00:50:00,42.0,42.0,30.20,SW,225,5.0,6.0,100,0.00,,,0.01,VWS V13.01,2014-03-18 07:50:00,
2014-03-18 00:55:00,41.0,41.0,30.21,SSW,202,9.0,10.0,100,0.00,,,0.01,VWS V13.01,2014-03-18 07:55:00,
2014-03-18 01:00:00,41.0,41.0,30.21,South,180,7.0,10.0,100,0.00,,,0.00,VWS V13.01,2014-03-18 08:00:00,
2014-03-18 01:05:00,42.0,42.0,30.20,South,180,8.0,10.0,100,0.00,,,0.00,VWS V13.01,2014-03-18 08:05:00,
2014-03-18 01:10:00,42.0,42.0,30.20,South,180,10.0,13.0,100,0.00,,,0.00,VWS V13.01,2014-03-18 08:10:00,
2014-03-18 01:15:00,42.0,42.0,30.20,South,180,9.0,10.0,100,0.00,,,0.00,VWS V13.01,2014-03-18 08:15:00,
2014-03-18 01:20:00,41.0,41.0,30.20,South,180,8.0,10.0,100,0.00,,,0.00,VWS V13.01,2014-03-18 08:20:00,
2014-03-18 01:25:00,41.0,41.0,30.20,SW,225,9.0,13.0,100,0.00,,,0.00,VWS V13.01,2014-03-18 08:25:00,
2014-03-18 01:27:00,46.0,45.2,30.24,SW,225,3.0,29.0,97,0.59,,,0.01,VWS V13.01,2014-03-18 08:27:00,
2014-03-18 01:28:00,46.0,45.2,30.24,SW,225,3.0,29.0,97,0.59,,,0.01,VWS V13.01,2014-03-18 08:28:00,
2014-03-18 01:29:00,46.0,45.2,30.24,SW,225,4.0,29.0,97,0.59,,,0.01,VWS V13.01,2014-03-18 08:29:00,
2014-03-18 01:30:00,41.0,41.0,30.20,SSW,202,10.0,11.0,100,0.00,,,0.00,VWS V13.01,2014-03-18 08:30:00,
2014-03-18 01:35:00,41.0,41.0,30.20,SW,225,12.0,15.0,100,0.00,,,0.00,VWS V13.01,2014-03-18 08:35:00,
2014-03-18 01:40:00,41.0,41.0,30.20,SSW,202,12.0,16.0,100,0.00,,,0.00,VWS V13.01,2014-03-18 08:40:00,
2014-03-18 01:45:00,41.0,41.0,30.20,SW,225,12.0,12.0,100,0.00,,,0.00,VWS V13.01,2014-03-18 08:45:00,
2014-03-18 01:50:00,42.0,42.0,30.22,SSW,202,8.0,14.0,100,0.00,,,0.00,VWS V13.01,2014-03-18 08:50:00,
2014-03-18 01:55:00,42.0,42.0,30.20,SSW,202,12.0,15.0,100,0.00,,,0.00,VWS V13.01,2014-03-18 08:55:00,
2014-03-18 02:00:00,42.0,42.0,30.21,SW,225,10.0,10.0,100,0.00,,,0.00,VWS V13.01,2014-03-18 09:00:00,
2014-03-18 02:04:00,46.0,45.2,30.24,SW,225,4.0,29.0,97,0.59,,,0.03,VWS V13.01,2014-03-18 09:04:00,
2014-03-18 02:05:00,42.0,42.0,30.21,SSW,202,10.0,12.0,100,0.00,,,0.00,VWS V13.01,2014-03-18 09:05:00,
2014-03-18 02:10:00,42.0,42.0,30.21,SSW,202,9.0,13.0,100,0.00,,,0.00,VWS V13.01,2014-03-18 09:10:00,
2014-03-18 02:11:00,46.0,45.2,30.24,SW,225,7.0,29.0,97,0.59,,,0.03,VWS V13.01,2014-03-18 09:11:00,
2014-03-18 02:12:00,46.0,45.2,30.24,SW,225,6.0,29.0,97,0.59,,,0.03,VWS V13.01,2014-03-18 09:12:00,
2014-03-18 02:15:00,42.0,42.0,30.21,SSW,202,10.0,13.0,100,0.00,,,0.00,VWS V13.01,2014-03-18 09:15:00,
2014-03-18 02:20:00,42.0,42.0,30.21,SSW,202,9.0,13.0,100,0.00,,,0.00,VWS V13.01,2014-03-18 09:20:00,
2014-03-18 02:25:00,42.0,42.0,30.22,South,180,11.0,13.0,100,0.00,,,0.00,VWS V13.01,2014-03-18 09:25:00,
2014-03-18 02:30:00,42.0,41.5,30.21,South,180,15.0,15.0,98,0.00,,,0.00,VWS V13.01,2014-03-18 09:30:00,
2014-03-18 02:35:00,42.0,41.5,30.21,South,180,9.0,15.0,98,0.00,,,0.00,VWS V13.01,2014-03-18 09:35:00,
2014-03-18 02:36:00,45.0,44.2,30.23,SW,225,6.0,29.0,97,0.59,,,0.04,VWS V13.01,2014-03-18 09:36:00,
2014-03-18 02:37:00,45.0,44.2,30.23,West,270,3.0,29.0,97,0.59,,,0.04,VWS V13.01,2014-03-18 09:37:00,
2014-03-18 02:38:00,45.0,44.2,30.23,WSW,247,1.0,29.0,97,0.59,,,0.04,VWS V13.01,2014-03-18 09:38:00,
2014-03-18 02:39:00,45.0,44.2,30.23,SW,225,4.0,29.0,97,0.59,,,0.04,VWS V13.01,2014-03-18 09:39:00,
2014-03-18 02:40:00,43.0,42.2,30.21,SSE,157,9.0,15.0,97,0.00,,,0.00,VWS V13.01,2014-03-18 09:40:00,
2014-03-18 02:45:00,43.0,42.7,30.21,South,180,9.0,11.0,99,0.00,,,0.00,VWS V13.01,2014-03-18 09:45:00,
2014-03-18 02:50:00,43.0,42.5,30.22,SSE,157,8.0,12.0,98,0.00,,,0.00,VWS V13.01,2014-03-18 09:50:00,
2014-03-18 02:51:00,45.0,44.2,30.23,SW,225,7.0,29.0,97,0.59,,,0.04,VWS V13.01,2014-03-18 09:51:00,
2014-03-18 02:55:00,43.0,42.5,30.22,SSE,157,7.0,12.0,98,0.00,,,0.00,VWS V13.01,2014-03-18 09:55:00,
2014-03-18 03:00:00,43.0,42.5,30.21,South,180,10.0,10.0,98,0.00,,,0.00,VWS V13.01,2014-03-18 10:00:00,
2014-03-18 03:05:00,43.0,42.2,30.21,South,180,7.0,10.0,97,0.00,,,0.00,VWS V13.01,2014-03-18 10:05:00,
2014-03-18 03:10:00,43.0,42.2,30.21,SSW,202,6.0,10.0,97,0.00,,,0.00,VWS V13.01,2014-03-18 10:10:00,
2014-03-18 03:15:00,42.0,40.9,30.21,South,180,8.0,9.0,96,0.00,,,0.00,VWS V13.01,2014-03-18 10:15:00,
2014-03-18 03:20:00,43.0,42.5,30.20,SSE,157,9.0,10.0,98,0.00,,,0.00,VWS V13.01,2014-03-18 10:20:00,
2014-03-18 03:25:00,43.0,42.5,30.20,SSE,157,10.0,12.0,98,0.00,,,0.00,VWS V13.01,2014-03-18 10:25:00,
2014-03-18 03:26:00,45.0,44.2,30.22,SW,225,6.0,29.0,97,0.59,,,0.05,VWS V13.01,2014-03-18 10:26:00,
2014-03-18 03:27:00,45.0,44.2,30.22,SSW,202,7.0,29.0,97,0.59,,,0.05,VWS V13.01,2014-03-18 10:27:00,
2014-03-18 03:30:00,43.0,42.5,30.20,SE,135,7.0,9.0,98,0.00,,,0.00,VWS V13.01,2014-03-18 10:30:00,
2014-03-18 03:34:00,43.0,43.0,30.20,South,180,9.0,11.0,100,0.00,,,0.00,VWS V13.01,2014-03-18 10:34:00,
2014-03-18 03:39:00,42.0,42.0,30.20,SSE,157,8.0,11.0,100,0.00,,,0.00,VWS V13.01,2014-03-18 10:39:00,
2014-03-18 03:40:00,45.0,44.2,30.22,West,270,0.0,29.0,97,0.59,,,0.05,VWS V13.01,2014-03-18 10:40:00,
2014-03-18 03:41:00,45.0,44.2,30.22,West,270,2.0,29.0,97,0.59,,,0.05,VWS V13.01,2014-03-18 10:41:00,
2014-03-18 03:44:00,42.0,42.0,30.20,SSE,157,7.0,7.0,100,0.00,,,0.00,VWS V13.01,2014-03-18 10:44:00,
2014-03-18 03:45:00,41.0,39.7,30.18,SSE,157,8.0,14.0,95,0.00,,,0.00,VWS V13.01,2014-03-18 10:45:00,
2014-03-18 03:49:00,42.0,42.0,30.19,SSE,157,5.0,10.0,100,0.00,,,0.00,VWS V13.01,2014-03-18 10:49:00,
2014-03-18 03:50:00,45.0,44.2,30.21,SSW,202,1.0,29.0,97,0.59,,,0.05,VWS V13.01,2014-03-18 10:50:00,
2014-03-18 03:51:00,45.0,44.2,30.21,South,180,2.0,29.0,97,0.59,,,0.05,VWS V13.01,2014-03-18 10:51:00,
2014-03-18 03:54:00,42.0,42.0,30.19,SE,135,6.0,10.0,100,0.00,,,0.00,VWS V13.01,2014-03-18 10:54:00,
2014-03-18 03:59:00,42.0,42.0,30.19,SSE,157,7.0,9.0,100,0.00,,,0.00,VWS V13.01,2014-03-18 10:59:00,
2014-03-18 04:00:00,41.0,39.1,30.17,SSE,157,12.0,13.0,93,0.00,,,0.00,VWS V13.01,2014-03-18 11:00:00,
2014-03-18 04:04:00,42.0,42.0,30.19,South,180,10.0,12.0,100,0.00,,,0.00,VWS V13.01,2014-03-18 11:04:00,
2014-03-18 04:09:00,42.0,42.0,30.20,SE,135,6.0,12.0,100,0.00,,,0.00,VWS V13.01,2014-03-18 11:09:00,
2014-03-18 04:14:00,42.0,42.0,30.19,SE,135,7.0,8.0,100,0.00,,,0.00,VWS V13.01,2014-03-18 11:14:00,
2014-03-18 04:15:00,41.0,37.4,30.17,SSE,157,11.0,15.0,87,0.00,,,0.00,VWS V13.01,2014-03-18 11:15:00,
2014-03-18 04:19:00,42.0,42.0,30.19,SE,135,10.0,12.0,100,0.00,,,0.00,VWS V13.01,2014-03-18 11:19:00,
2014-03-18 04:21:00,45.0,44.2,30.22,WSW,247,0.0,29.0,97,0.59,,,0.05,VWS V13.01,2014-03-18 11:21:00,
2014-03-18 04:22:00,45.0,44.2,30.22,SSW,202,1.0,29.0,97,0.59,,,0.05,VWS V13.01,2014-03-18 11:22:00,
2014-03-18 04:23:00,45.0,44.2,30.21,WSW,247,5.0,29.0,97,0.59,,,0.05,VWS V13.01,2014-03-18 11:23:00,
2014-03-18 04:24:00,41.0,41.0,30.18,SE,135,10.0,12.0,100,0.00,,,0.00,VWS V13.01,2014-03-18 11:24:00,
2014-03-18 04:27:00,45.0,44.2,30.21,WNW,292,3.0,29.0,97,0.59,,,0.05,VWS V13.01,2014-03-18 11:27:00,
2014-03-18 04:28:00,45.0,44.2,30.22,West,270,1.0,29.0,97,0.59,,,0.05,VWS V13.01,2014-03-18 11:28:00,
2014-03-18 04:29:00,41.0,41.0,30.18,SSE,157,12.0,13.0,100,0.00,,,0.00,VWS V13.01,2014-03-18 11:29:00,
2014-03-18 04:30:00,41.0,35.9,30.16,SE,135,12.0,15.0,82,0.00,,,0.00,VWS V13.01,2014-03-18 11:30:00,
2014-03-18 04:31:00,45.0,44.2,30.22,WNW,292,2.0,29.0,97,0.59,,,0.05,VWS V13.01,2014-03-18 11:31:00,
2014-03-18 04:32:00,45.0,44.2,30.22,West,270,3.0,29.0,97,0.59,,,0.05,VWS V13.01,2014-03-18 11:32:00,
2014-03-18 04:34:00,41.0,40.7,30.18,South,180,10.0,14.0,99,0.00,,,0.00,VWS V13.01,2014-03-18 11:34:00,
2014-03-18 04:39:00,41.0,40.0,30.18,South,180,9.0,14.0,96,0.00,,,0.00,VWS V13.01,2014-03-18 11:39:00,
2014-03-18 04:41:00,45.0,44.2,30.21,WSW,247,5.0,29.0,97,0.59,,,0.06,VWS V13.01,2014-03-18 11:41:00,
2014-03-18 04:42:00,45.0,44.2,30.21,WSW,247,5.0,29.0,97,0.59,,,0.06,VWS V13.01,2014-03-18 11:42:00,
2014-03-18 04:43:00,45.0,44.2,30.21,SW,225,4.0,29.0,97,0.59,,,0.06,VWS V13.01,2014-03-18 11:43:00,
2014-03-18 04:44:00,41.0,39.7,30.18,SSE,157,10.0,11.0,95,0.00,,,0.00,VWS V13.01,2014-03-18 11:44:00,
2014-03-18 04:45:00,40.0,34.3,30.17,SSE,157,12.0,15.0,80,0.00,,,0.00,VWS V13.01,2014-03-18 11:45:00,
2014-03-18 04:49:00,41.0,39.4,30.18,SSE,157,9.0,12.0,94,0.00,,,0.00,VWS V13.01,2014-03-18 11:49:00,
2014-03-18 04:54:00,41.0,38.9,30.17,SSE,157,10.0,12.0,92,0.00,,,0.00,VWS V13.01,2014-03-18 11:54:00,
2014-03-18 04:59:00,41.0,39.1,30.17,SSE,157,13.0,13.0,93,0.00,,,0.00,VWS V13.01,2014-03-18 11:59:00,
2014-03-18 05:00:00,40.0,34.7,30.17,SSE,157,12.0,13.0,81,0.00,,,0.00,VWS V13.01,2014-03-18 12:00:00,
2014-03-18 05:03:00,45.0,44.2,30.21,WNW,292,3.0,29.0,97,0.59,,,0.06,VWS V13.01,2014-03-18 12:03:00,
2014-03-18 05:04:00,41.0,38.9,30.16,SSE,157,12.0,15.0,92,0.00,,,0.00,VWS V13.01,2014-03-18 12:04:00,
2014-03-18 05:09:00,41.0,39.1,30.17,SSE,157,12.0,15.0,93,0.00,,,0.00,VWS V13.01,2014-03-18 12:09:00,
2014-03-18 05:10:00,45.0,44.2,30.21,WNW,292,0.0,29.0,97,0.59,,,0.06,VWS V13.01,2014-03-18 12:10:00,
2014-03-18 05:11:00,45.0,44.2,30.21,West,270,3.0,29.0,97,0.59,,,0.06,VWS V13.01,2014-03-18 12:11:00,
2014-03-18 05:12:00,45.0,44.2,30.21,WNW,292,1.0,29.0,97,0.59,,,0.06,VWS V13.01,2014-03-18 12:12:00,
2014-03-18 05:14:00,41.0,37.4,30.17,SE,135,12.0,13.0,87,0.00,,,0.00,VWS V13.01,2014-03-18 12:14:00,
2014-03-18 05:15:00,40.0,34.0,30.17,SSE,157,9.0,14.0,79,0.00,,,0.00,VWS V13.01,2014-03-18 12:15:00,
2014-03-18 05:19:00,41.0,37.7,30.16,SE,135,12.0,15.0,88,0.00,,,0.00,VWS V13.01,2014-03-18 12:19:00,
2014-03-18 05:24:00,41.0,37.1,30.17,SSE,157,13.0,15.0,86,0.00,,,0.00,VWS V13.01,2014-03-18 12:24:00,
2014-03-18 05:29:00,41.0,35.9,30.16,SE,135,13.0,13.0,82,0.00,,,0.00,VWS V13.01,2014-03-18 12:29:00,
2014-03-18 05:30:00,40.0,34.7,30.16,SE,135,10.0,11.0,81,0.00,,,0.00,VWS V13.01,2014-03-18 12:30:00,
2014-03-18 05:34:00,41.0,35.6,30.16,SE,135,12.0,14.0,81,0.00,,,0.00,VWS V13.01,2014-03-18 12:34:00,
2014-03-18 05:39:00,40.0,34.3,30.17,SE,135,13.0,15.0,80,0.00,,,0.00,VWS V13.01,2014-03-18 12:39:00,
2014-03-18 05:40:00,45.0,44.2,30.20,WNW,292,0.0,29.0,97,0.59,,,0.07,VWS V13.01,2014-03-18 12:40:00,
2014-03-18 05:41:00,45.0,44.2,30.21,WNW,292,0.0,29.0,97,0.59,,,0.07,VWS V13.01,2014-03-18 12:41:00,
2014-03-18 05:44:00,40.0,34.3,30.17,SSE,157,12.0,12.0,80,0.00,,,0.00,VWS V13.01,2014-03-18 12:44:00,
2014-03-18 05:49:00,40.0,33.7,30.17,SE,135,10.0,13.0,78,0.00,,,0.00,VWS V13.01,2014-03-18 12:49:00,
2014-03-18 05:52:00,45.0,44.2,30.20,WNW,292,0.0,29.0,97,0.59,,,0.08,VWS V13.01,2014-03-18 12:52:00,
2014-03-18 05:53:00,45.0,44.2,30.20,WNW,292,0.0,29.0,97,0.59,,,0.08,VWS V13.01,2014-03-18 12:53:00,
2014-03-18 05:54:00,41.0,34.0,30.18,SSE,157,10.0,13.0,76,0.00,,,0.00,VWS V13.01,2014-03-18 12:54:00,
2014-03-18 05:59:00,40.0,34.7,30.17,SSE,157,12.0,13.0,81,0.00,,,0.00,VWS V13.01,2014-03-18 12:59:00,
2014-03-18 06:00:00,40.0,34.7,30.16,SSE,157,10.0,10.0,81,0.00,,,0.00,VWS V13.01,2014-03-18 13:00:00,
2014-03-18 06:04:00,40.0,33.1,30.17,SE,135,10.0,13.0,76,0.00,,,0.00,VWS V13.01,2014-03-18 13:04:00,
2014-03-18 06:06:00,45.0,44.2,30.20,WNW,292,0.0,29.0,97,0.59,,,0.09,VWS V13.01,2014-03-18 13:06:00,
2014-03-18 06:07:00,45.0,44.2,30.20,WNW,292,0.0,29.0,97,0.59,,,0.09,VWS V13.01,2014-03-18 13:07:00,
2014-03-18 06:08:00,45.0,44.2,30.20,WNW,292,0.0,29.0,97,0.59,,,0.09,VWS V13.01,2014-03-18 13:08:00,
2014-03-18 06:09:00,40.0,34.3,30.17,SE,135,11.0,14.0,80,0.00,,,0.00,VWS V13.01,2014-03-18 13:09:00,
2014-03-18 06:14:00,40.0,34.0,30.17,SSE,157,9.0,14.0,79,0.00,,,0.00,VWS V13.01,2014-03-18 13:14:00,
2014-03-18 06:19:00,40.0,35.3,30.17,SSE,157,13.0,13.0,83,0.00,,,0.00,VWS V13.01,2014-03-18 13:19:00,
2014-03-18 06:24:00,40.0,34.7,30.17,SE,135,10.0,13.0,81,0.00,,,0.00,VWS V13.01,2014-03-18 13:24:00,
2014-03-18 06:29:00,40.0,34.7,30.16,SE,135,9.0,13.0,81,0.00,,,0.00,VWS V13.01,2014-03-18 13:29:00,
2014-03-18 06:30:00,40.0,35.0,30.17,SSE,157,8.0,13.0,82,0.00,,,0.00,VWS V13.01,2014-03-18 13:30:00,
2014-03-18 06:34:00,40.0,34.7,30.17,SE,135,9.0,12.0,81,0.00,,,0.00,VWS V13.01,2014-03-18 13:34:00,
2014-03-18 06:39:00,40.0,35.0,30.17,SE,135,10.0,13.0,82,0.00,,,0.00,VWS V13.01,2014-03-18 13:39:00,
2014-03-18 06:44:00,40.0,35.3,30.16,SE,135,9.0,13.0,83,0.00,,,0.00,VWS V13.01,2014-03-18 13:44:00,
2014-03-18 06:45:00,40.0,35.9,30.18,SSE,157,10.0,12.0,85,0.00,,,0.00,VWS V13.01,2014-03-18 13:45:00,
2014-03-18 06:49:00,40.0,33.7,30.16,SE,135,7.0,12.0,78,0.00,,,0.00,VWS V13.01,2014-03-18 13:49:00,
2014-03-18 06:54:00,40.0,34.7,30.16,SSE,157,13.0,13.0,81,0.00,,,0.00,VWS V13.01,2014-03-18 13:54:00,
2014-03-18 06:59:00,40.0,34.7,30.16,SSE,157,12.0,13.0,81,0.00,,,0.00,VWS V13.01,2014-03-18 13:59:00,
2014-03-18 07:00:00,40.0,35.9,30.18,SE,135,9.0,10.0,85,0.00,,,0.00,VWS V13.01,2014-03-18 14:00:00,
2014-03-18 07:02:00,45.0,44.2,30.18,SSW,202,0.0,29.0,97,0.59,,,0.09,VWS V13.01,2014-03-18 14:02:00,
2014-03-18 07:03:00,45.0,44.2,30.18,SSW,202,1.0,29.0,97,0.59,,,0.09,VWS V13.01,2014-03-18 14:03:00,
2014-03-18 07:04:00,40.0,34.7,30.17,SSE,157,11.0,14.0,81,0.00,,,0.00,VWS V13.01,2014-03-18 14:04:00,
2014-03-18 07:07:00,45.0,44.2,30.18,SSW,202,0.0,29.0,97,0.59,,,0.09,VWS V13.01,2014-03-18 14:07:00,
2014-03-18 07:08:00,45.0,44.2,30.18,SSW,202,0.0,29.0,97,0.59,,,0.09,VWS V13.01,2014-03-18 14:08:00,
2014-03-18 07:09:00,40.0,34.7,30.17,SE,135,9.0,14.0,81,0.00,,,0.00,VWS V13.01,2014-03-18 14:09:00,
2014-03-18 07:14:00,40.0,34.3,30.17,SE,135,10.0,14.0,80,0.00,,,0.00,VWS V13.01,2014-03-18 14:14:00,
2014-03-18 07:19:00,40.0,35.9,30.17,SE,135,10.0,13.0,85,0.00,,,0.00,VWS V13.01,2014-03-18 14:19:00,
2014-03-18 07:24:00,40.0,35.3,30.17,SSE,157,9.0,13.0,83,0.00,,,0.00,VWS V13.01,2014-03-18 14:24:00,
2014-03-18 07:26:00,45.0,44.2,30.17,WSW,247,4.0,29.0,97,0.59,,,0.10,VWS V13.01,2014-03-18 14:26:00,
2014-03-18 07:27:00,45.0,44.2,30.17,SW,225,5.0,29.0,97,0.59,,,0.10,VWS V13.01,2014-03-18 14:27:00,
2014-03-18 07:28:00,45.0,44.2,30.17,WSW,247,2.0,29.0,97,0.59,,,0.10,VWS V13.01,2014-03-18 14:28:00,
2014-03-18 07:29:00,40.0,35.0,30.17,SSE,157,8.0,13.0,82,0.00,,,0.00,VWS V13.01,2014-03-18 14:29:00,
2014-03-18 07:30:00,40.0,36.2,30.17,SE,135,10.0,10.0,86,0.00,,,0.00,VWS V13.01,2014-03-18 14:30:00,
2014-03-18 07:34:00,39.0,32.1,30.17,South,180,9.0,11.0,76,0.00,,,0.00,VWS V13.01,2014-03-18 14:34:00,
2014-03-18 07:39:00,40.0,33.7,30.17,SSE,157,7.0,12.0,78,0.00,,,0.00,VWS V13.01,2014-03-18 14:39:00,
2014-03-18 07:44:00,40.0,34.0,30.18,SSE,157,9.0,12.0,79,0.00,,,0.00,VWS V13.01,2014-03-18 14:44:00,
2014-03-18 07:49:00,40.0,34.7,30.18,SE,135,8.0,12.0,81,0.00,,,0.00,VWS V13.01,2014-03-18 14:49:00,
2014-03-18 07:54:00,40.0,34.3,30.18,SE,135,7.0,12.0,80,0.00,,,0.00,VWS V13.01,2014-03-18 14:54:00,
2014-03-18 07:59:00,40.0,34.0,30.18,SSE,157,9.0,12.0,79,0.00,,,0.00,VWS V13.01,2014-03-18 14:59:00,
2014-03-18 08:00:00,40.0,35.6,30.18,SSE,157,10.0,10.0,84,0.00,,,0.00,VWS V13.01,2014-03-18 15:00:00,
2014-03-18 08:01:00,45.0,44.2,30.17,SW,225,4.0,29.0,97,0.59,,,0.10,VWS V13.01,2014-03-18 15:01:00,
2014-03-18 08:02:00,45.0,44.2,30.16,SW,225,4.0,29.0,97,0.59,,,0.10,VWS V13.01,2014-03-18 15:02:00,
2014-03-18 08:03:00,45.0,44.2,30.16,SSW,202,3.0,29.0,97,0.59,,,0.10,VWS V13.01,2014-03-18 15:03:00,
2014-03-18 08:04:00,39.0,34.0,30.18,SE,135,10.0,12.0,82,0.00,,,0.00,VWS V13.01,2014-03-18 15:04:00,
2014-03-18 08:09:00,39.0,33.4,30.18,SE,135,10.0,12.0,80,0.00,,,0.00,VWS V13.01,2014-03-18 15:09:00,
2014-03-18 08:14:00,40.0,34.7,30.18,SE,135,9.0,13.0,81,0.00,,,0.00,VWS V13.01,2014-03-18 15:14:00,
2014-03-18 08:19:00,40.0,35.0,30.18,SSE,157,13.0,13.0,82,0.00,,,0.00,VWS V13.01,2014-03-18 15:19:00,
2014-03-18 08:20:00,45.0,44.2,30.16,SSE,157,2.0,29.0,97,0.59,,,0.10,VWS V13.01,2014-03-18 15:20:00,
2014-03-18 08:21:00,45.0,44.2,30.16,SSE,157,3.0,29.0,97,0.59,,,0.10,VWS V13.01,2014-03-18 15:21:00,
2014-03-18 08:24:00,40.0,34.7,30.18,SE,135,9.0,13.0,81,0.00,,,0.00,VWS V13.01,2014-03-18 15:24:00,
2014-03-18 08:26:00,45.0,44.2,30.16,SSE,157,2.0,29.0,97,0.59,,,0.10,VWS V13.01,2014-03-18 15:26:00,
2014-03-18 08:27:00,45.0,44.2,30.16,SSE,157,2.0,29.0,97,0.59,,,0.10,VWS V13.01,2014-03-18 15:27:00,
2014-03-18 08:29:00,40.0,34.3,30.18,SE,135,12.0,13.0,80,0.00,,,0.00,VWS V13.01,2014-03-18 15:29:00,
2014-03-18 08:30:00,41.0,37.7,30.18,SSE,157,10.0,14.0,88,0.00,,,0.00,VWS V13.01,2014-03-18 15:30:00,
2014-03-18 08:33:00,40.0,34.3,30.17,SSE,157,11.0,12.0,80,0.00,,,0.00,VWS V13.01,2014-03-18 15:33:00,
2014-03-18 08:38:00,40.0,33.7,30.17,SSE,157,10.0,13.0,78,0.00,,,0.00,VWS V13.01,2014-03-18 15:38:00,
2014-03-18 08:43:00,40.0,33.4,30.17,SE,135,11.0,13.0,77,0.00,,,0.00,VWS V13.01,2014-03-18 15:43:00,
2014-03-18 08:48:00,40.0,34.0,30.17,SSE,157,10.0,13.0,79,0.00,,,0.00,VWS V13.01,2014-03-18 15:48:00,
2014-03-18 08:53:00,40.0,34.0,30.18,SE,135,9.0,13.0,79,0.00,,,0.00,VWS V13.01,2014-03-18 15:53:00,
2014-03-18 08:58:00,40.0,34.3,30.18,SSE,157,9.0,13.0,80,0.00,,,0.00,VWS V13.01,2014-03-18 15:58:00,
2014-03-18 08:59:00,45.0,44.2,30.14,SSE,157,4.0,29.0,97,0.59,,,0.10,VWS V13.01,2014-03-18 15:59:00,
2014-03-18 09:00:00,42.0,39.0,30.19,SSE,157,10.0,17.0,89,0.00,,,0.00,VWS V13.01,2014-03-18 16:00:00,
2014-03-18 09:01:00,45.0,44.2,30.14,SSE,157,3.0,29.0,97,0.59,,,0.10,VWS V13.01,2014-03-18 16:01:00,
2014-03-18 09:03:00,40.0,34.3,30.18,SE,135,10.0,12.0,80,0.00,,,0.00,VWS V13.01,2014-03-18 16:03:00,
2014-03-18 09:04:00,45.0,44.2,30.14,SSE,157,5.0,29.0,97,0.59,,,0.10,VWS V13.01,2014-03-18 16:04:00,
2014-03-18 09:08:00,40.0,33.4,30.18,SE,135,9.0,12.0,77,0.00,,,0.00,VWS V13.01,2014-03-18 16:08:00,
2014-03-18 09:13:00,41.0,34.7,30.18,SSE,157,9.0,12.0,78,0.00,,,0.00,VWS V13.01,2014-03-18 16:13:00,
2014-03-18 09:15:00,42.0,37.5,30.20,SE,135,10.0,16.0,84,0.00,,,0.00,VWS V13.01,2014-03-18 16:15:00,
2014-03-18 09:18:00,41.0,35.6,30.20,SE,135,9.0,12.0,81,0.00,,,0.00,VWS V13.01,2014-03-18 16:18:00,
2014-03-18 09:20:00,42.0,33.6,30.19,SE,135,13.0,19.0,72,0.00,,,0.00,VWS V13.01,2014-03-18 16:20:00,
2014-03-18 09:23:00,41.0,35.0,30.18,SE,135,10.0,12.0,79,0.00,,,0.00,VWS V13.01,2014-03-18 16:23:00,
2014-03-18 09:28:00,41.0,35.9,30.19,SSE,157,12.0,14.0,82,0.00,,,0.00,VWS V13.01,2014-03-18 16:28:00,
2014-03-18 09:30:00,42.0,35.0,30.19,SE,135,12.0,12.0,76,0.00,,,0.00,VWS V13.01,2014-03-18 16:30:00,
2014-03-18 09:33:00,41.0,35.9,30.18,SE,135,11.0,13.0,82,0.00,,,0.00,VWS V13.01,2014-03-18 16:33:00,
2014-03-18 09:38:00,41.0,34.7,30.18,SSE,157,12.0,13.0,78,0.00,,,0.00,VWS V13.01,2014-03-18 16:38:00,
2014-03-18 09:43:00,41.0,35.3,30.18,SE,135,10.0,13.0,80,0.00,,,0.00,VWS V13.01,2014-03-18 16:43:00,
2014-03-18 09:44:00,45.0,44.2,30.15,SSE,157,2.0,29.0,97,0.59,,,0.10,VWS V13.01,2014-03-18 16:44:00,
2014-03-18 09:45:00,42.0,34.0,30.20,SE,135,13.0,17.0,73,0.00,,,0.00,VWS V13.01,2014-03-18 16:45:00,
2014-03-18 09:48:00,41.0,35.3,30.18,SSE,157,10.0,17.0,80,0.00,,,0.00,VWS V13.01,2014-03-18 16:48:00,
2014-03-18 09:53:00,42.0,36.0,30.18,SSE,157,11.0,17.0,79,0.00,,,0.00,VWS V13.01,2014-03-18 16:53:00,
2014-03-18 09:54:00,45.0,44.2,30.15,SSE,157,1.0,29.0,97,0.59,,,0.10,VWS V13.01,2014-03-18 16:54:00,
2014-03-18 09:55:00,45.0,44.2,30.15,SSE,157,2.0,29.0,97,0.59,,,0.10,VWS V13.01,2014-03-18 16:55:00,
2014-03-18 09:57:00,45.0,44.2,30.15,SSE,157,1.0,29.0,97,0.59,,,0.10,VWS V13.01,2014-03-18 16:57:00,
2014-03-18 09:58:00,42.0,36.3,30.20,South,180,12.0,17.0,80,0.00,,,0.00,VWS V13.01,2014-03-18 16:58:00,
2014-03-18 10:00:00,42.0,35.0,30.20,SE,135,13.0,17.0,76,0.00,,,0.00,VWS V13.01,2014-03-18 17:00:00,
2014-03-18 10:03:00,42.0,36.9,30.19,SE,135,10.0,14.0,82,0.00,,,0.00,VWS V13.01,2014-03-18 17:03:00,
2014-03-18 10:08:00,42.0,36.9,30.18,SE,135,11.0,15.0,82,0.00,,,0.00,VWS V13.01,2014-03-18 17:08:00,
2014-03-18 10:13:00,42.0,36.6,30.19,SSE,157,14.0,16.0,81,0.00,,,0.00,VWS V13.01,2014-03-18 17:13:00,
2014-03-18 10:15:00,42.0,34.0,30.20,SE,135,14.0,15.0,73,0.00,,,0.00,VWS V13.01,2014-03-18 17:15:00,
2014-03-18 10:20:00,42.0,33.6,30.19,SE,135,12.0,19.0,72,0.00,,,0.00,VWS V13.01,2014-03-18 17:20:00,
2014-03-18 10:25:00,42.0,31.1,30.20,SE,135,12.0,19.0,65,0.00,,,0.00,VWS V13.01,2014-03-18 17:25:00,
2014-03-18 10:30:00,42.0,35.0,30.19,SE,135,11.0,13.0,76,0.00,,,0.00,VWS V13.01,2014-03-18 17:30:00,
2014-03-18 10:35:00,42.0,32.2,30.20,SE,135,10.0,17.0,68,0.00,,,0.00,VWS V13.01,2014-03-18 17:35:00,
2014-03-18 10:40:00,42.0,35.3,30.21,SE,135,13.0,17.0,77,0.00,,,0.00,VWS V13.01,2014-03-18 17:40:00,
2014-03-18 10:45:00,42.0,34.0,30.20,SE,135,11.0,16.0,73,0.00,,,0.00,VWS V13.01,2014-03-18 17:45:00,
2014-03-18 10:46:00,46.0,45.2,30.15,South,180,1.0,29.0,97,0.59,,,0.10,VWS V13.01,2014-03-18 17:46:00,
2014-03-18 10:47:00,46.0,45.2,30.15,South,180,1.0,29.0,97,0.59,,,0.10,VWS V13.01,2014-03-18 17:47:00,
2014-03-18 10:48:00,46.0,45.2,30.15,South,180,2.0,29.0,97,0.59,,,0.10,VWS V13.01,2014-03-18 17:48:00,
2014-03-18 10:50:00,42.0,34.3,30.20,SE,135,12.0,16.0,74,0.00,,,0.00,VWS V13.01,2014-03-18 17:50:00,
2014-03-18 10:55:00,42.0,36.3,30.20,SE,135,13.0,16.0,80,0.00,,,0.00,VWS V13.01,2014-03-18 17:55:00,
2014-03-18 11:00:00,42.0,35.0,30.20,SE,135,12.0,13.0,76,0.00,,,0.00,VWS V13.01,2014-03-18 18:00:00,
2014-03-18 11:05:00,42.0,35.0,30.21,SE,135,13.0,15.0,76,0.00,,,0.00,VWS V13.01,2014-03-18 18:05:00,
2014-03-18 11:10:00,42.0,34.3,30.21,SE,135,10.0,15.0,74,0.00,,,0.00,VWS V13.01,2014-03-18 18:10:00,
2014-03-18 11:15:00,42.0,34.0,30.20,SE,135,13.0,14.0,73,0.00,,,0.00,VWS V13.01,2014-03-18 18:15:00,
2014-03-18 11:20:00,42.0,35.3,30.21,SE,135,11.0,15.0,77,0.00,,,0.00,VWS V13.01,2014-03-18 18:20:00,
2014-03-18 11:25:00,42.0,34.7,30.21,SE,135,12.0,15.0,75,0.00,,,0.00,VWS V13.01,2014-03-18 18:25:00,
2014-03-18 11:30:00,42.0,34.0,30.20,SE,135,12.0,12.0,73,0.00,,,0.00,VWS V13.01,2014-03-18 18:30:00,
2014-03-18 11:35:00,42.0,32.9,30.20,SE,135,11.0,13.0,70,0.00,,,0.00,VWS V13.01,2014-03-18 18:35:00,
2014-03-18 11:40:00,42.0,33.3,30.21,SE,135,10.0,13.0,71,0.00,,,0.00,VWS V13.01,2014-03-18 18:40:00,
2014-03-18 11:44:00,42.0,34.3,30.20,SE,135,10.0,12.0,74,0.00,,,0.00,VWS V13.01,2014-03-18 18:44:00,
2014-03-18 11:45:00,43.0,38.5,30.20,SE,135,9.0,12.0,84,0.00,,,0.00,VWS V13.01,2014-03-18 18:45:00,
2014-03-18 11:49:00,42.0,34.0,30.20,SE,135,8.0,13.0,73,0.00,,,0.00,VWS V13.01,2014-03-18 18:49:00,
2014-03-18 11:54:00,42.0,33.3,30.20,SE,135,12.0,14.0,71,0.00,,,0.00,VWS V13.01,2014-03-18 18:54:00,
2014-03-18 11:59:00,42.0,34.3,30.20,SE,135,11.0,13.0,74,0.00,,,0.00,VWS V13.01,2014-03-18 18:59:00,
2014-03-18 12:00:00,43.0,39.7,30.20,SE,135,9.0,12.0,88,0.00,,,0.00,VWS V13.01,2014-03-18 19:00:00,
2014-03-18 12:04:00,42.0,34.7,30.20,SSE,157,11.0,13.0,75,0.00,,,0.00,VWS V13.01,2014-03-18 19:04:00,
2014-03-18 12:09:00,42.0,35.0,30.20,SE,135,13.0,15.0,76,0.00,,,0.00,VWS V13.01,2014-03-18 19:09:00,
2014-03-18 12:14:00,43.0,36.9,30.19,SE,135,12.0,12.0,79,0.00,,,0.00,VWS V13.01,2014-03-18 19:14:00,
2014-03-18 12:19:00,42.0,36.3,30.19,SE,135,7.0,13.0,80,0.00,,,0.00,VWS V13.01,2014-03-18 19:19:00,
2014-03-18 12:24:00,43.0,36.6,30.20,SE,135,12.0,13.0,78,0.00,,,0.00,VWS V13.01,2014-03-18 19:24:00,
2014-03-18 12:29:00,43.0,37.3,30.20,SE,135,9.0,10.0,80,0.00,,,0.00,VWS V13.01,2014-03-18 19:29:00,
2014-03-18 12:30:00,44.0,41.5,30.20,SE,135,9.0,10.0,91,0.00,,,0.00,VWS V13.01,2014-03-18 19:30:00,
2014-03-18 12:34:00,43.0,38.8,30.20,SE,135,11.0,12.0,85,0.00,,,0.00,VWS V13.01,2014-03-18 19:34:00,
2014-03-18 12:39:00,43.0,38.5,30.20,SE,135,10.0,12.0,84,0.00,,,0.00,VWS V13.01,2014-03-18 19:39:00,
2014-03-18 12:44:00,43.0,38.5,30.20,SE,135,9.0,10.0,84,0.00,,,0.00,VWS V13.01,2014-03-18 19:44:00,
2014-03-18 12:49:00,43.0,39.1,30.20,SE,135,10.0,11.0,86,0.00,,,0.00,VWS V13.01,2014-03-18 19:49:00,
2014-03-18 12:50:00,47.0,45.4,30.12,SSE,157,4.0,29.0,94,0.59,,,0.10,VWS V13.01,2014-03-18 19:50:00,
2014-03-18 12:51:00,47.0,45.4,30.12,SSE,157,3.0,29.0,94,0.59,,,0.10,VWS V13.01,2014-03-18 19:51:00,
2014-03-18 12:52:00,47.0,45.1,30.12,SSE,157,3.0,29.0,93,0.59,,,0.10,VWS V13.01,2014-03-18 19:52:00,
2014-03-18 12:54:00,43.0,38.5,30.20,SE,135,10.0,12.0,84,0.00,,,0.00,VWS V13.01,2014-03-18 19:54:00,
2014-03-18 12:59:00,43.0,39.7,30.20,SE,135,7.0,10.0,88,0.00,,,0.00,VWS V13.01,2014-03-18 19:59:00,
2014-03-18 13:00:00,45.0,43.1,30.20,SE,135,10.0,13.0,93,0.00,,,0.00,VWS V13.01,2014-03-18 20:00:00,
2014-03-18 13:04:00,44.0,41.0,30.20,SE,135,9.0,12.0,89,0.00,,,0.00,VWS V13.01,2014-03-18 20:04:00,
2014-03-18 13:09:00,44.0,40.4,30.20,SE,135,11.0,12.0,87,0.00,,,0.00,VWS V13.01,2014-03-18 20:09:00,
2014-03-18 13:14:00,44.0,40.4,30.20,SE,135,9.0,10.0,87,0.00,,,0.00,VWS V13.01,2014-03-18 20:14:00,
2014-03-18 13:15:00,45.0,44.2,30.19,SE,135,8.0,13.0,97,0.00,,,0.00,VWS V13.01,2014-03-18 20:15:00,
2014-03-18 13:19:00,44.0,41.5,30.20,SE,135,8.0,12.0,91,0.00,,,0.00,VWS V13.01,2014-03-18 20:19:00,
2014-03-18 13:24:00,44.0,40.7,30.20,ESE,112,9.0,12.0,88,0.00,,,0.00,VWS V13.01,2014-03-18 20:24:00,
2014-03-18 13:29:00,44.0,41.5,30.20,SE,135,10.0,12.0,91,0.00,,,0.00,VWS V13.01,2014-03-18 20:29:00,
2014-03-18 13:30:00,45.0,43.9,30.19,SE,135,11.0,12.0,96,0.00,,,0.00,VWS V13.01,2014-03-18 20:30:00,
2014-03-18 13:34:00,44.0,42.4,30.20,SE,135,10.0,12.0,94,0.00,,,0.00,VWS V13.01,2014-03-18 20:34:00,
2014-03-18 13:39:00,44.0,42.4,30.20,SE,135,10.0,12.0,94,0.00,,,0.00,VWS V13.01,2014-03-18 20:39:00,
2014-03-18 13:44:00,44.0,41.3,30.20,SE,135,10.0,10.0,90,0.00,,,0.00,VWS V13.01,2014-03-18 20:44:00,
2014-03-18 13:49:00,44.0,41.8,30.20,SSE,157,9.0,11.0,92,0.00,,,0.00,VWS V13.01,2014-03-18 20:49:00,
2014-03-18 13:54:00,45.0,42.8,30.20,SE,135,7.0,11.0,92,0.00,,,0.00,VWS V13.01,2014-03-18 20:54:00,
2014-03-18 13:59:00,45.0,43.1,30.20,SE,135,10.0,13.0,93,0.00,,,0.00,VWS V13.01,2014-03-18 20:59:00,
2014-03-18 14:00:00,46.0,46.0,30.19,SE,135,9.0,14.0,100,0.00,,,0.00,VWS V13.01,2014-03-18 21:00:00,
2014-03-18 14:04:00,45.0,44.2,30.20,SE,135,12.0,12.0,97,0.00,,,0.00,VWS V13.01,2014-03-18 21:04:00,
2014-03-18 14:06:00,48.0,45.5,30.09,ESE,112,6.0,29.0,91,0.59,,,0.10,VWS V13.01,2014-03-18 21:06:00,
2014-03-18 14:07:00,48.0,45.5,30.09,ESE,112,6.0,29.0,91,0.59,,,0.10,VWS V13.01,2014-03-18 21:07:00,
2014-03-18 14:08:00,48.0,45.5,30.09,ESE,112,6.0,29.0,91,0.59,,,0.10,VWS V13.01,2014-03-18 21:08:00,
2014-03-18 14:09:00,45.0,43.9,30.20,SE,135,9.0,13.0,96,0.00,,,0.00,VWS V13.01,2014-03-18 21:09:00,
2014-03-18 14:14:00,45.0,44.2,30.19,SE,135,9.0,13.0,97,0.00,,,0.00,VWS V13.01,2014-03-18 21:14:00,
2014-03-18 14:15:00,48.0,45.8,30.09,SE,135,2.0,29.0,92,0.59,,,0.10,VWS V13.01,2014-03-18 21:15:00,
2014-03-18 14:16:00,48.0,45.8,30.09,SE,135,6.0,29.0,92,0.59,,,0.10,VWS V13.01,2014-03-18 21:16:00,
2014-03-18 14:17:00,48.0,45.8,30.09,SE,135,6.0,29.0,92,0.59,,,0.10,VWS V13.01,2014-03-18 21:17:00,
2014-03-18 14:19:00,45.0,43.4,30.19,SE,135,10.0,11.0,94,0.00,,,0.00,VWS V13.01,2014-03-18 21:19:00,
2014-03-18 14:24:00,45.0,44.2,30.19,SSE,157,4.0,12.0,97,0.00,,,0.00,VWS V13.01,2014-03-18 21:24:00,
2014-03-18 14:29:00,45.0,43.9,30.19,SE,135,9.0,12.0,96,0.00,,,0.00,VWS V13.01,2014-03-18 21:29:00,
2014-03-18 14:30:00,46.0,45.7,30.18,SE,135,11.0,11.0,99,0.00,,,0.00,VWS V13.01,2014-03-18 21:30:00,
2014-03-18 14:31:00,48.0,45.5,30.08,SSE,157,2.0,29.0,91,0.59,,,0.10,VWS V13.01,2014-03-18 21:31:00,
2014-03-18 14:34:00,45.0,44.2,30.19,SE,135,12.0,13.0,97,0.00,,,0.00,VWS V13.01,2014-03-18 21:34:00,
2014-03-18 14:39:00,46.0,45.7,30.19,SE,135,12.0,13.0,99,0.00,,,0.00,VWS V13.01,2014-03-18 21:39:00,
2014-03-18 14:44:00,45.0,44.2,30.18,SE,135,11.0,13.0,97,0.00,,,0.00,VWS V13.01,2014-03-18 21:44:00,
2014-03-18 14:49:00,46.0,46.0,30.18,SE,135,13.0,14.0,100,0.00,,,0.00,VWS V13.01,2014-03-18 21:49:00,
2014-03-18 14:54:00,46.0,46.0,30.18,SE,135,10.0,14.0,100,0.00,,,0.00,VWS V13.01,2014-03-18 21:54:00,
2014-03-18 14:59:00,46.0,46.0,30.19,SE,135,9.0,14.0,100,0.00,,,0.00,VWS V13.01,2014-03-18 21:59:00,
2014-03-18 15:00:00,46.0,45.5,30.18,SE,135,10.0,12.0,98,0.00,,,0.00,VWS V13.01,2014-03-18 22:00:00,
2014-03-18 15:04:00,46.0,46.0,30.18,SE,135,10.0,12.0,100,0.00,,,0.00,VWS V13.01,2014-03-18 22:04:00,
2014-03-18 15:09:00,46.0,46.0,30.18,SE,135,10.0,13.0,100,0.00,,,0.00,VWS V13.01,2014-03-18 22:09:00,
2014-03-18 15:14:00,46.0,46.0,30.18,SE,135,10.0,13.0,100,0.00,,,0.00,VWS V13.01,2014-03-18 22:14:00,
2014-03-18 15:15:00,46.0,45.5,30.17,SE,135,10.0,14.0,98,0.00,,,0.00,VWS V13.01,2014-03-18 22:15:00,
2014-03-18 15:18:00,49.0,46.2,30.06,SSE,157,4.0,29.0,90,0.59,,,0.10,VWS V13.01,2014-03-18 22:18:00,
2014-03-18 15:19:00,46.0,46.0,30.18,SE,135,12.0,13.0,100,0.00,,,0.00,VWS V13.01,2014-03-18 22:19:00,
2014-03-18 15:24:00,46.0,45.7,30.18,SE,135,13.0,15.0,99,0.00,,,0.00,VWS V13.01,2014-03-18 22:24:00,
2014-03-18 15:25:00,49.0,46.2,30.05,SSE,157,4.0,29.0,90,0.59,,,0.10,VWS V13.01,2014-03-18 22:25:00,
2014-03-18 15:26:00,49.0,46.2,30.05,SSE,157,4.0,29.0,90,0.59,,,0.10,VWS V13.01,2014-03-18 22:26:00,
2014-03-18 15:29:00,46.0,45.7,30.18,SE,135,13.0,15.0,99,0.00,,,0.00,VWS V13.01,2014-03-18 22:29:00,
2014-03-18 15:30:00,46.0,44.9,30.16,SE,135,9.0,13.0,96,0.00,,,0.00,VWS V13.01,2014-03-18 22:30:00,
2014-03-18 15:34:00,46.0,45.2,30.18,SE,135,9.0,13.0,97,0.00,,,0.00,VWS V13.01,2014-03-18 22:34:00,
2014-03-18 15:39:00,46.0,46.0,30.18,SE,135,10.0,13.0,100,0.00,,,0.00,VWS V13.01,2014-03-18 22:39:00,
2014-03-18 15:44:00,46.0,45.7,30.18,SE,135,10.0,13.0,99,0.00,,,0.00,VWS V13.01,2014-03-18 22:44:00,
2014-03-18 15:45:00,46.0,46.0,30.16,SE,135,8.0,15.0,100,0.00,,,0.00,VWS V13.01,2014-03-18 22:45:00,
2014-03-18 15:49:00,46.0,45.7,30.18,SE,135,10.0,12.0,99,0.00,,,0.00,VWS V13.01,2014-03-18 22:49:00,
2014-03-18 15:54:00,46.0,44.9,30.18,SE,135,11.0,12.0,96,0.00,,,0.00,VWS V13.01,2014-03-18 22:54:00,
2014-03-18 15:59:00,46.0,44.9,30.19,SSE,157,10.0,12.0,96,0.00,,,0.00,VWS V13.01,2014-03-18 22:59:00,
2014-03-18 16:00:00,46.0,46.0,30.16,SE,135,12.0,13.0,100,0.00,,,0.00,VWS V13.01,2014-03-18 23:00:00,
2014-03-18 16:04:00,46.0,44.9,30.18,SSE,157,11.0,12.0,96,0.00,,,0.00,VWS V13.01,2014-03-18 23:04:00,
2014-03-18 16:09:00,46.0,45.2,30.18,SE,135,11.0,14.0,97,0.00,,,0.00,VWS V13.01,2014-03-18 23:09:00,
2014-03-18 16:14:00,46.0,44.4,30.18,SE,135,11.0,14.0,94,0.00,,,0.00,VWS V13.01,2014-03-18 23:14:00,
2014-03-18 16:19:00,46.0,45.7,30.17,SE,135,12.0,12.0,99,0.00,,,0.00,VWS V13.01,2014-03-18 23:19:00,
2014-03-18 16:24:00,46.0,44.1,30.17,SE,135,13.0,13.0,93,0.00,,,0.00,VWS V13.01,2014-03-18 23:24:00,
2014-03-18 16:29:00,46.0,44.4,30.17,SE,135,9.0,13.0,94,0.00,,,0.00,VWS V13.01,2014-03-18 23:29:00,
2014-03-18 16:30:00,46.0,46.0,30.14,SE,135,10.0,10.0,100,0.00,,,0.00,VWS V13.01,2014-03-18 23:30:00,
2014-03-18 16:34:00,46.0,44.9,30.16,SE,135,13.0,15.0,96,0.00,,,0.00,VWS V13.01,2014-03-18 23:34:00,
2014-03-18 16:39:00,46.0,45.5,30.16,SE,135,9.0,15.0,98,0.00,,,0.00,VWS V13.01,2014-03-18 23:39:00,
2014-03-18 16:43:00,46.0,45.5,30.16,SE,135,10.0,15.0,98,0.00,,,0.00,VWS V13.01,2014-03-18 23:43:00,
2014-03-18 16:45:00,46.0,45.7,30.14,SE,135,10.0,12.0,99,0.00,,,0.00,VWS V13.01,2014-03-18 23:45:00,
2014-03-18 16:48:00,46.0,44.9,30.16,SSE,157,12.0,13.0,96,0.00,,,0.00,VWS V13.01,2014-03-18 23:48:00,
2014-03-18 16:53:00,46.0,45.5,30.16,SE,135,11.0,13.0,98,0.00,,,0.00,VWS V13.01,2014-03-18 23:53:00,
2014-03-18 16:58:00,46.0,46.0,30.15,SE,135,8.0,13.0,100,0.00,,,0.00,VWS V13.01,2014-03-18 23:58:00,
2014-03-18 17:00:00,46.0,45.7,30.13,SE,135,8.0,10.0,99,0.00,,,0.00,VWS V13.01,2014-03-19 00:00:00,
2014-03-18 17:03:00,46.0,45.5,30.16,SSE,157,12.0,13.0,98,0.00,,,0.00,VWS V13.01,2014-03-19 00:03:00,
2014-03-18 17:08:00,46.0,45.2,30.15,SE,135,10.0,13.0,97,0.00,,,0.00,VWS V13.01,2014-03-19 00:08:00,
2014-03-18 17:13:00,46.0,44.9,30.15,SE,135,10.0,13.0,96,0.00,,,0.00,VWS V13.01,2014-03-19 00:13:00,
2014-03-18 17:15:00,46.0,44.9,30.13,SE,135,7.0,10.0,96,0.00,,,0.00,VWS V13.01,2014-03-19 00:15:00,
2014-03-18 17:18:00,46.0,46.0,30.14,SE,135,10.0,13.0,100,0.00,,,0.00,VWS V13.01,2014-03-19 00:18:00,
2014-03-18 17:23:00,46.0,46.0,30.14,SE,135,9.0,13.0,100,0.00,,,0.00,VWS V13.01,2014-03-19 00:23:00,
2014-03-18 17:28:00,46.0,45.7,30.14,SE,135,9.0,13.0,99,0.00,,,0.00,VWS V13.01,2014-03-19 00:28:00,
2014-03-18 17:30:00,46.0,44.4,30.13,SE,135,7.0,9.0,94,0.00,,,0.00,VWS V13.01,2014-03-19 00:30:00,
2014-03-18 17:33:00,46.0,46.0,30.14,SE,135,10.0,12.0,100,0.00,,,0.00,VWS V13.01,2014-03-19 00:33:00,
2014-03-18 17:38:00,46.0,44.7,30.14,SE,135,8.0,12.0,95,0.00,,,0.00,VWS V13.01,2014-03-19 00:38:00,
2014-03-18 17:43:00,46.0,44.9,30.14,SE,135,8.0,12.0,96,0.00,,,0.00,VWS V13.01,2014-03-19 00:43:00,
2014-03-18 17:45:00,46.0,44.7,30.12,SE,135,5.0,8.0,95,0.00,,,0.00,VWS V13.01,2014-03-19 00:45:00,
2014-03-18 17:48:00,46.0,44.7,30.14,SE,135,7.0,10.0,95,0.00,,,0.00,VWS V13.01,2014-03-19 00:48:00,
2014-03-18 17:53:00,46.0,44.9,30.13,SE,135,8.0,10.0,96,0.00,,,0.00,VWS V13.01,2014-03-19 00:53:00,
2014-03-18 17:58:00,46.0,44.9,30.13,SE,135,7.0,10.0,96,0.00,,,0.00,VWS V13.01,2014-03-19 00:58:00,
2014-03-18 18:00:00,46.0,44.7,30.12,SE,135,4.0,6.0,95,0.00,,,0.00,VWS V13.01,2014-03-19 01:00:00,
2014-03-18 18:03:00,46.0,45.7,30.13,SE,135,8.0,9.0,99,0.00,,,0.00,VWS V13.01,2014-03-19 01:03:00,
2014-03-18 18:08:00,46.0,44.4,30.14,SE,135,6.0,10.0,94,0.00,,,0.00,VWS V13.01,2014-03-19 01:08:00,
2014-03-18 18:13:00,46.0,44.4,30.13,SSE,157,4.0,10.0,94,0.00,,,0.00,VWS V13.01,2014-03-19 01:13:00,
2014-03-18 18:15:00,46.0,43.8,30.11,SE,135,3.0,6.0,92,0.00,,,0.00,VWS V13.01,2014-03-19 01:15:00,
2014-03-18 18:18:00,46.0,44.1,30.13,SE,135,7.0,9.0,93,0.00,,,0.00,VWS V13.01,2014-03-19 01:18:00,
2014-03-18 18:23:00,46.0,44.1,30.13,SE,135,6.0,9.0,93,0.00,,,0.00,VWS V13.01,2014-03-19 01:23:00,
2014-03-18 18:28:00,46.0,43.8,30.13,SE,135,6.0,9.0,92,0.00,,,0.00,VWS V13.01,2014-03-19 01:28:00,
2014-03-18 18:30:00,46.0,42.7,30.11,SE,135,3.0,6.0,88,0.00,,,0.00,VWS V13.01,2014-03-19 01:30:00,
2014-03-18 18:33:00,46.0,43.5,30.13,SE,135,7.0,8.0,91,0.00,,,0.00,VWS V13.01,2014-03-19 01:33:00,
2014-03-18 18:38:00,46.0,43.0,30.12,SE,135,5.0,8.0,89,0.00,,,0.00,VWS V13.01,2014-03-19 01:38:00,
2014-03-18 18:43:00,46.0,43.5,30.12,SE,135,6.0,8.0,91,0.00,,,0.00,VWS V13.01,2014-03-19 01:43:00,
2014-03-18 18:48:00,46.0,43.2,30.12,SE,135,4.0,6.0,90,0.00,,,0.00,VWS V13.01,2014-03-19 01:48:00,
2014-03-18 18:53:00,46.0,43.8,30.12,SE,135,4.0,6.0,92,0.00,,,0.00,VWS V13.01,2014-03-19 01:53:00,
2014-03-18 18:58:00,46.0,43.0,30.12,SE,135,2.0,6.0,89,0.00,,,0.00,VWS V13.01,2014-03-19 01:58:00,
2014-03-18 19:00:00,46.0,42.3,30.10,SE,135,3.0,4.0,87,0.00,,,0.00,VWS V13.01,2014-03-19 02:00:00,
2014-03-18 19:03:00,46.0,42.7,30.12,SE,135,4.0,6.0,88,0.00,,,0.00,VWS V13.01,2014-03-19 02:03:00,
2014-03-18 19:08:00,46.0,43.0,30.12,SE,135,5.0,6.0,89,0.00,,,0.00,VWS V13.01,2014-03-19 02:08:00,
2014-03-18 19:13:00,46.0,43.0,30.11,SE,135,4.0,6.0,89,0.00,,,0.00,VWS V13.01,2014-03-19 02:13:00,
2014-03-18 19:15:00,46.0,41.4,30.10,SSE,157,2.0,5.0,84,0.00,,,0.00,VWS V13.01,2014-03-19 02:15:00,
2014-03-18 19:18:00,46.0,42.3,30.11,SE,135,5.0,6.0,87,0.00,,,0.00,VWS V13.01,2014-03-19 02:18:00,
2014-03-18 19:23:00,46.0,42.3,30.11,SE,135,3.0,6.0,87,0.00,,,0.00,VWS V13.01,2014-03-19 02:23:00,
2014-03-18 19:28:00,46.0,41.1,30.11,SE,135,0.0,6.0,83,0.00,,,0.00,VWS V13.01,2014-03-19 02:28:00,
2014-03-18 19:30:00,46.0,38.9,30.11,SE,135,3.0,3.0,76,0.00,,,0.00,VWS V13.01,2014-03-19 02:30:00,
2014-03-18 19:33:00,46.0,42.0,30.11,SE,135,4.0,6.0,86,0.00,,,0.00,VWS V13.01,2014-03-19 02:33:00,
2014-03-18 19:38:00,46.0,41.4,30.11,SE,135,4.0,6.0,84,0.00,,,0.00,VWS V13.01,2014-03-19 02:38:00,
2014-03-18 19:43:00,46.0,41.1,30.11,SE,135,4.0,6.0,83,0.00,,,0.00,VWS V13.01,2014-03-19 02:43:00,
2014-03-18 19:48:00,46.0,41.4,30.11,SE,135,3.0,5.0,84,0.00,,,0.00,VWS V13.01,2014-03-19 02:48:00,
2014-03-18 19:53:00,46.0,40.8,30.11,SE,135,3.0,5.0,82,0.00,,,0.00,VWS V13.01,2014-03-19 02:53:00,
2014-03-18 19:58:00,46.0,40.8,30.11,SE,135,2.0,5.0,82,0.00,,,0.00,VWS V13.01,2014-03-19 02:58:00,
2014-03-18 20:00:00,45.0,38.2,30.09,SE,135,3.0,3.0,77,0.00,,,0.00,VWS V13.01,2014-03-19 03:00:00,
2014-03-18 20:01:00,45.0,36.5,30.09,SE,135,3.0,4.0,72,0.00,,,0.00,VWS V13.01,2014-03-19 03:01:00,
2014-03-18 20:03:00,46.0,41.1,30.10,SE,135,3.0,5.0,83,0.00,,,0.00,VWS V13.01,2014-03-19 03:03:00,
2014-03-18 20:06:00,45.0,36.2,30.09,SE,135,1.0,4.0,71,0.00,,,0.00,VWS V13.01,2014-03-19 03:06:00,
2014-03-18 20:08:00,46.0,41.1,30.11,SE,135,5.0,5.0,83,0.00,,,0.00,VWS V13.01,2014-03-19 03:08:00,
2014-03-18 20:13:00,46.0,39.5,30.10,SSE,157,4.0,5.0,78,0.00,,,0.00,VWS V13.01,2014-03-19 03:13:00,
2014-03-18 20:15:00,45.0,37.9,30.08,South,180,1.0,4.0,76,0.00,,,0.00,VWS V13.01,2014-03-19 03:15:00,
2014-03-18 20:18:00,46.0,38.5,30.10,SE,135,4.0,5.0,75,0.00,,,0.00,VWS V13.01,2014-03-19 03:18:00,
2014-03-18 20:23:00,46.0,37.8,30.10,SE,135,1.0,6.0,73,0.00,,,0.00,VWS V13.01,2014-03-19 03:23:00,
2014-03-18 20:28:00,46.0,37.1,30.10,SE,135,2.0,6.0,71,0.00,,,0.00,VWS V13.01,2014-03-19 03:28:00,
2014-03-18 20:30:00,45.0,37.9,30.08,SSW,202,0.0,3.0,76,0.00,,,0.00,VWS V13.01,2014-03-19 03:30:00,
2014-03-18 20:33:00,46.0,36.0,30.11,SE,135,2.0,4.0,68,0.00,,,0.00,VWS V13.01,2014-03-19 03:33:00,
2014-03-18 20:38:00,46.0,34.9,30.10,SE,135,3.0,5.0,65,0.00,,,0.00,VWS V13.01,2014-03-19 03:38:00,
2014-03-18 20:43:00,45.0,36.5,30.10,SE,135,3.0,5.0,72,0.00,,,0.00,VWS V13.01,2014-03-19 03:43:00,
2014-03-18 20:45:00,45.0,37.9,30.08,SSW,202,0.0,0.0,76,0.00,,,0.00,VWS V13.01,2014-03-19 03:45:00,
2014-03-18 20:48:00,45.0,35.8,30.10,SE,135,2.0,3.0,70,0.00,,,0.00,VWS V13.01,2014-03-19 03:48:00,
2014-03-18 20:53:00,45.0,35.8,30.09,SE,135,2.0,4.0,70,0.00,,,0.00,VWS V13.01,2014-03-19 03:53:00,
2014-03-18 20:58:00,45.0,36.2,30.09,SE,135,6.0,6.0,71,0.00,,,0.00,VWS V13.01,2014-03-19 03:58:00,
2014-03-18 21:00:00,45.0,36.9,30.08,SSE,157,0.0,1.0,73,0.00,,,0.00,VWS V13.01,2014-03-19 04:00:00,
2014-03-18 21:01:00,45.0,36.2,30.09,SE,135,3.0,4.0,71,0.00,,,0.00,VWS V13.01,2014-03-19 04:01:00,
2014-03-18 21:06:00,45.0,35.8,30.09,SE,135,2.0,4.0,70,0.00,,,0.00,VWS V13.01,2014-03-19 04:06:00,
2014-03-18 21:08:00,45.0,34.3,30.09,SE,135,3.0,5.0,66,0.00,,,0.00,VWS V13.01,2014-03-19 04:08:00,
2014-03-18 21:11:00,45.0,35.8,30.09,South,180,0.0,4.0,70,0.00,,,0.00,VWS V13.01,2014-03-19 04:11:00,
2014-03-18 21:15:00,45.0,36.5,30.08,SSE,157,2.0,5.0,72,0.00,,,0.00,VWS V13.01,2014-03-19 04:15:00,
2014-03-18 21:16:00,45.0,36.2,30.08,SW,225,0.0,1.0,71,0.00,,,0.00,VWS V13.01,2014-03-19 04:16:00,
2014-03-18 21:21:00,45.0,36.2,30.09,SSW,202,0.0,3.0,71,0.00,,,0.00,VWS V13.01,2014-03-19 04:21:00,
2014-03-18 21:26:00,45.0,36.2,30.08,SSW,202,0.0,3.0,71,0.00,,,0.00,VWS V13.01,2014-03-19 04:26:00,
2014-03-18 21:30:00,45.0,36.5,30.07,SW,225,2.0,2.0,72,0.00,,,0.00,VWS V13.01,2014-03-19 04:30:00,
2014-03-18 21:31:00,45.0,36.2,30.08,SSW,202,0.0,0.0,71,0.00,,,0.00,VWS V13.01,2014-03-19 04:31:00,
2014-03-18 21:35:00,45.0,36.5,30.07,SW,225,0.0,3.0,72,0.00,,,0.00,VWS V13.01,2014-03-19 04:35:00,
2014-03-18 21:36:00,45.0,36.2,30.09,SSW,202,0.0,0.0,71,0.00,,,0.00,VWS V13.01,2014-03-19 04:36:00,
2014-03-18 21:41:00,45.0,36.2,30.09,SSW,202,0.0,0.0,71,0.00,,,0.00,VWS V13.01,2014-03-19 04:41:00,
2014-03-18 21:45:00,45.0,36.5,30.08,SW,225,0.0,6.0,72,0.00,,,0.00,VWS V13.01,2014-03-19 04:45:00,
2014-03-18 21:46:00,45.0,36.2,30.08,SSW,202,0.0,0.0,71,0.00,,,0.00,VWS V13.01,2014-03-19 04:46:00,
2014-03-18 21:51:00,45.0,36.2,30.08,SSE,157,0.0,0.0,71,0.00,,,0.00,VWS V13.01,2014-03-19 04:51:00,
2014-03-18 21:56:00,45.0,35.1,30.08,SE,135,2.0,3.0,68,0.00,,,0.00,VWS V13.01,2014-03-19 04:56:00,
2014-03-18 22:00:00,45.0,36.5,30.07,SW,225,1.0,2.0,72,0.00,,,0.00,VWS V13.01,2014-03-19 05:00:00,
2014-03-18 22:08:00,45.0,34.3,30.09,SE,135,2.0,5.0,66,0.00,,,0.00,VWS V13.01,2014-03-19 05:08:00,
2014-03-18 22:13:00,45.0,34.3,30.08,SSE,157,4.0,5.0,66,0.00,,,0.00,VWS V13.01,2014-03-19 05:13:00,
2014-03-18 22:18:00,45.0,34.3,30.08,SSE,157,0.0,3.0,66,0.00,,,0.00,VWS V13.01,2014-03-19 05:18:00,
2014-03-18 22:23:00,45.0,34.3,30.08,SSW,202,0.0,3.0,66,0.00,,,0.00,VWS V13.01,2014-03-19 05:23:00,
2014-03-18 22:28:00,45.0,34.7,30.07,SW,225,0.0,3.0,67,0.00,,,0.00,VWS V13.01,2014-03-19 05:28:00,
2014-03-18 22:30:00,45.0,36.2,30.06,SW,225,0.0,0.0,71,0.00,,,0.00,VWS V13.01,2014-03-19 05:30:00,
2014-03-18 22:33:00,45.0,34.7,30.07,SSW,202,2.0,3.0,67,0.00,,,0.00,VWS V13.01,2014-03-19 05:33:00,
2014-03-18 22:35:00,45.0,34.7,30.07,SW,225,0.0,3.0,67,0.00,,,0.00,VWS V13.01,2014-03-19 05:35:00,
2014-03-18 22:40:00,45.0,34.7,30.08,SW,225,0.0,3.0,67,0.00,,,0.00,VWS V13.01,2014-03-19 05:40:00,
2014-03-18 22:45:00,45.0,34.7,30.08,SW,225,0.0,3.0,67,0.00,,,0.00,VWS V13.01,2014-03-19 05:45:00,
2014-03-18 22:50:00,45.0,34.7,30.07,WSW,247,1.0,3.0,67,0.00,,,0.00,VWS V13.01,2014-03-19 05:50:00,
2014-03-18 22:55:00,45.0,36.5,30.07,SW,225,2.0,3.0,72,0.00,,,0.00,VWS V13.01,2014-03-19 05:55:00,
2014-03-18 23:00:00,45.0,36.5,30.07,WSW,247,0.0,2.0,72,0.00,,,0.00,VWS V13.01,2014-03-19 06:00:00,
2014-03-18 23:05:00,45.0,36.9,30.07,SW,225,0.0,2.0,73,0.00,,,0.00,VWS V13.01,2014-03-19 06:05:00,
2014-03-18 23:10:00,45.0,36.9,30.06,SW,225,0.0,2.0,73,0.00,,,0.00,VWS V13.01,2014-03-19 06:10:00,
2014-03-18 23:15:00,45.0,36.9,30.07,SW,225,0.0,0.0,73,0.00,,,0.00,VWS V13.01,2014-03-19 06:15:00,
2014-03-18 23:20:00,45.0,36.9,30.06,WSW,247,0.0,0.0,73,0.00,,,0.00,VWS V13.01,2014-03-19 06:20:00,
2014-03-18 23:25:00,45.0,36.5,30.06,SW,225,0.0,0.0,72,0.00,,,0.00,VWS V13.01,2014-03-19 06:25:00,
2014-03-18 23:30:00,45.0,36.2,30.06,SW,225,0.0,0.0,71,0.00,,,0.00,VWS V13.01,2014-03-19 06:30:00,
2014-03-18 23:35:00,45.0,36.2,30.05,SW,225,0.0,0.0,71,0.00,,,0.00,VWS V13.01,2014-03-19 06:35:00,
2014-03-18 23:40:00,45.0,35.8,30.05,SW,225,0.0,0.0,70,0.00,,,0.00,VWS V13.01,2014-03-19 06:40:00,
2014-03-18 23:45:00,45.0,35.5,30.05,SW,225,0.0,0.0,69,0.00,,,0.00,VWS V13.01,2014-03-19 06:45:00,
2014-03-18 23:50:00,45.0,35.1,30.05,SW,225,0.0,0.0,68,0.00,,,0.00,VWS V13.01,2014-03-19 06:50:00,
2014-03-18 23:55:00,45.0,34.7,30.05,SW,225,0.0,0.0,67,0.00,,,0.00,VWS V13.01,2014-03-19 06:55:00,